Time;durP1;ratioP1;P1;durP2;ratioP2;P2;SDS_P1;SDS_P2;PMS_P1;PMS_P2;Temp;Humidity;BMP_temperature;BMP_pressure;BME280_temperature;BME280_humidity;BME280_pressure;Samples;Min_cycle;Max_cycle;Signal;HPM_P1;HPM_P2
2022/08/30 00:03:03;;;;;;;3.58;1.45;;;;;;;19.81;100.00;100846.72;5008238;28;20584;-65
2022/08/30 00:05:29;;;;;;;8.48;2.10;;;;;;;19.79;100.00;100847.94;5007957;28;20500;-63
2022/08/30 00:07:56;;;;;;;6.65;1.77;;;;;;;19.76;100.00;100843.03;5007766;28;20037;-61
2022/08/30 00:10:24;;;;;;;3.75;1.77;;;;;;;19.74;100.00;100845.06;5006757;28;20065;-62
2022/08/30 00:12:50;;;;;;;2.45;1.55;;;;;;;19.71;100.00;100848.09;5006722;28;20034;-63
2022/08/30 00:15:16;;;;;;;7.05;1.63;;;;;;;19.77;100.00;100844.66;5007921;28;20133;-63
2022/08/30 00:17:42;;;;;;;3.75;1.70;;;;;;;19.83;100.00;100843.88;5006451;28;20030;-61
2022/08/30 00:20:11;;;;;;;4.38;1.65;;;;;;;19.80;100.00;100854.84;5007938;28;20120;-64
2022/08/30 00:22:37;;;;;;;5.70;1.35;;;;;;;19.72;100.00;100845.25;5007610;28;20025;-63
2022/08/30 00:25:03;;;;;;;4.18;1.88;;;;;;;19.70;100.00;100855.19;5007821;28;20057;-61
2022/08/30 00:27:29;;;;;;;5.13;1.35;;;;;;;19.69;100.00;100848.28;5007791;28;20049;-64
2022/08/30 00:29:55;;;;;;;9.75;1.67;;;;;;;19.72;100.00;100847.91;5007615;28;20054;-62
2022/08/30 00:32:22;;;;;;;4.07;1.10;;;;;;;19.68;100.00;100851.13;5007825;28;20038;-64
2022/08/30 00:34:48;;;;;;;5.68;1.75;;;;;;;19.60;100.00;100853.91;5008134;28;20136;-62
2022/08/30 00:37:14;;;;;;;1.58;1.35;;;;;;;19.58;100.00;100850.63;5007589;28;20405;-64
2022/08/30 00:39:40;;;;;;;3.50;1.35;;;;;;;19.52;100.00;100857.50;5007832;28;20112;-64
2022/08/30 00:42:06;;;;;;;1.30;1.02;;;;;;;19.52;100.00;100853.06;5009929;28;20030;-64
2022/08/30 00:44:32;;;;;;;5.13;1.23;;;;;;;19.54;100.00;100845.75;5011406;28;20050;-61
2022/08/30 00:46:58;;;;;;;3.60;1.00;;;;;;;19.47;100.00;100852.78;5011540;28;20076;-63
2022/08/30 00:49:24;;;;;;;1.77;1.10;;;;;;;19.38;100.00;100846.00;5011405;28;20045;-65
2022/08/30 00:51:51;;;;;;;2.22;1.30;;;;;;;19.32;100.00;100846.81;5011208;28;20490;-62
2022/08/30 00:54:17;;;;;;;5.45;1.05;;;;;;;19.28;100.00;100842.91;5011290;28;20026;-61
2022/08/30 00:56:45;;;;;;;1.95;0.95;;;;;;;19.45;100.00;100849.50;5011442;28;20054;-61
2022/08/30 00:59:11;;;;;;;5.07;0.93;;;;;;;19.65;100.00;100851.50;5011107;28;20048;-61
2022/08/30 01:01:37;;;;;;;5.63;1.30;;;;;;;19.76;100.00;100851.78;5011605;28;20374;-60
2022/08/30 01:04:05;;;;;;;1.02;0.85;;;;;;;19.85;100.00;100860.34;5010860;28;20038;-62
2022/08/30 01:06:33;;;;;;;3.63;1.00;;;;;;;19.91;100.00;100866.69;5011272;28;20074;-61
2022/08/30 01:09:00;;;;;;;4.03;1.30;;;;;;;19.91;100.00;100864.84;5009788;28;20393;-63
2022/08/30 01:11:26;;;;;;;4.75;1.15;;;;;;;19.84;100.00;100853.44;5010852;28;20026;-60
2022/08/30 01:13:54;;;;;;;1.58;1.00;;;;;;;19.76;100.00;100862.34;5010855;28;20029;-63
2022/08/30 01:16:21;;;;;;;2.80;0.70;;;;;;;19.67;100.00;100860.06;5010842;28;20700;-63
2022/08/30 01:18:49;;;;;;;2.97;0.88;;;;;;;19.61;100.00;100861.66;5010508;28;20350;-64
2022/08/30 01:21:46;;;;;;;2.55;1.10;;;;;;;19.52;100.00;100863.63;5010626;28;20033;-63
2022/08/30 01:24:13;;;;;;;3.22;1.27;;;;;;;19.42;100.00;100873.69;5010716;28;20048;-63
2022/08/30 01:26:39;;;;;;;3.78;0.93;;;;;;;19.36;100.00;100861.25;5010602;28;20030;-62
2022/08/30 01:29:16;;;;;;;4.43;1.40;;;;;;;19.33;100.00;100861.63;5010279;28;20104;-61
2022/08/30 01:31:41;;;;;;;2.58;1.10;;;;;;;19.31;100.00;100861.00;5010477;28;20056;-65
2022/08/30 01:34:07;;;;;;;4.53;1.25;;;;;;;19.32;100.00;100867.13;5010693;28;20034;-62
2022/08/30 01:36:37;;;;;;;3.63;1.08;;;;;;;19.30;100.00;100869.94;5010384;28;20569;-63
2022/08/30 01:39:03;;;;;;;2.97;1.02;;;;;;;19.23;100.00;100861.16;5010260;28;20022;-63
2022/08/30 01:41:34;;;;;;;2.75;1.00;;;;;;;19.18;100.00;100859.09;5010254;28;20359;-64
2022/08/30 01:44:03;;;;;;;2.97;1.17;;;;;;;19.16;100.00;100862.91;5010177;28;20033;-64
2022/08/30 01:46:35;;;;;;;1.58;1.00;;;;;;;19.10;100.00;100861.03;5010140;28;20058;-62
2022/08/30 01:49:04;;;;;;;1.92;1.25;;;;;;;19.08;100.00;100861.22;5010247;28;20041;-62
2022/08/30 01:51:30;;;;;;;1.55;1.17;;;;;;;19.32;100.00;100865.28;5010374;28;20026;-63
2022/08/30 01:53:56;;;;;;;2.33;1.15;;;;;;;19.62;100.00;100867.75;5010058;28;20040;-64
2022/08/30 01:56:24;;;;;;;5.32;1.10;;;;;;;19.75;100.00;100863.38;5010273;28;20084;-64
2022/08/30 01:58:50;;;;;;;2.70;1.38;;;;;;;19.75;100.00;100862.56;5010151;28;20375;-61
2022/08/30 02:01:19;;;;;;;2.33;1.23;;;;;;;19.71;100.00;100853.38;5010254;28;20385;-60
2022/08/30 02:03:45;;;;;;;1.90;1.05;;;;;;;19.71;100.00;100856.00;5009982;28;20033;-62
2022/08/30 02:06:15;;;;;;;2.33;1.40;;;;;;;19.74;100.00;100860.91;5010074;28;20092;-60
2022/08/30 02:08:41;;;;;;;3.03;1.02;;;;;;;19.71;100.00;100858.66;5009691;28;20501;-64
2022/08/30 02:11:08;;;;;;;3.10;1.10;;;;;;;19.78;100.00;100856.88;5009821;28;20026;-62
2022/08/30 02:13:34;;;;;;;6.22;1.00;;;;;;;19.84;100.00;100840.22;5008317;28;20025;-61
2022/08/30 02:15:59;;;;;;;1.65;1.23;;;;;;;19.86;100.00;100838.19;5009663;28;20208;-63
2022/08/30 02:18:25;;;;;;;4.10;0.80;;;;;;;19.91;100.00;100845.53;5010063;28;20584;-65
2022/08/30 02:20:51;;;;;;;4.50;1.25;;;;;;;19.92;100.00;100841.88;5009663;28;20036;-63
2022/08/30 02:23:17;;;;;;;4.28;1.10;;;;;;;19.84;100.00;100843.69;5009407;28;20034;-63
2022/08/30 02:25:45;;;;;;;2.78;1.05;;;;;;;19.84;100.00;100841.06;5009929;28;20022;-64
2022/08/30 02:28:12;;;;;;;3.15;1.10;;;;;;;19.91;100.00;100835.75;5009397;28;20065;-62
2022/08/30 02:30:38;;;;;;;4.38;1.00;;;;;;;20.02;100.00;100827.28;5008083;28;20049;-62
2022/08/30 02:33:04;;;;;;;1.98;0.98;;;;;;;20.01;100.00;100828.28;5009480;28;20061;-61
2022/08/30 02:35:29;;;;;;;1.95;0.95;;;;;;;19.89;100.00;100822.75;5009857;28;20079;-61
2022/08/30 02:37:55;;;;;;;1.15;0.90;;;;;;;19.74;100.00;100823.91;5009233;28;20025;-64
2022/08/30 02:42:56;;;;;;;3.97;1.27;;;;;;;19.44;100.00;100816.16;5065176;22;20125;-62
2022/08/30 02:45:22;;;;;;;4.80;0.95;;;;;;;19.35;100.00;100809.44;4990020;28;20035;-61
2022/08/30 02:47:48;;;;;;;2.65;1.00;;;;;;;19.28;100.00;100818.31;4989694;28;20033;-64
2022/08/30 02:50:14;;;;;;;3.33;0.90;;;;;;;19.28;100.00;100813.84;4989988;28;20022;-64
2022/08/30 02:52:39;;;;;;;1.98;1.02;;;;;;;19.44;100.00;100821.44;4988103;28;20458;-65
2022/08/30 02:55:06;;;;;;;7.13;1.20;;;;;;;19.45;100.00;100819.63;4989520;28;20030;-63
2022/08/30 02:57:32;;;;;;;5.03;0.95;;;;;;;19.39;100.00;100820.41;4989617;28;20043;-61
2022/08/30 02:59:58;;;;;;;1.00;0.85;;;;;;;19.53;100.00;100822.16;4971984;28;20030;-63
2022/08/30 03:02:23;;;;;;;3.47;2.05;;;;;;;19.75;100.00;100822.91;4989372;28;20030;-66
2022/08/30 03:04:50;;;;;;;1.58;0.95;;;;;;;19.80;100.00;100825.78;4988952;28;20411;-64
2022/08/30 03:07:15;;;;;;;2.50;1.05;;;;;;;19.73;100.00;100820.44;4971473;28;20675;-62
2022/08/30 03:09:41;;;;;;;4.15;1.20;;;;;;;19.69;100.00;100821.03;4989453;28;20290;-61
2022/08/30 03:12:08;;;;;;;2.85;1.17;;;;;;;19.63;100.00;100822.63;4989119;28;20121;-60
2022/08/30 03:14:35;;;;;;;7.55;1.40;;;;;;;19.60;100.00;100825.66;4989125;28;20375;-63
2022/08/30 03:17:02;;;;;;;2.50;1.25;;;;;;;19.54;100.00;100823.78;4989128;28;20026;-61
2022/08/30 03:19:28;;;;;;;4.45;1.23;;;;;;;19.54;100.00;100831.72;4988942;28;20026;-61
2022/08/30 03:21:53;;;;;;;1.70;1.05;;;;;;;19.59;100.00;100826.66;4988914;28;20060;-62
2022/08/30 03:24:19;;;;;;;4.15;1.30;;;;;;;19.68;100.00;100830.78;4989220;28;20092;-61
2022/08/30 03:26:45;;;;;;;1.25;0.90;;;;;;;19.77;100.00;100834.09;4989114;28;20026;-63
2022/08/30 03:29:10;;;;;;;2.60;1.25;;;;;;;19.86;100.00;100838.19;4989206;28;20473;-62
2022/08/30 03:31:36;;;;;;;3.45;1.27;;;;;;;19.86;100.00;100840.81;4988920;28;20053;-62
2022/08/30 03:34:02;;;;;;;2.08;1.30;;;;;;;19.83;100.00;100843.88;4988833;28;20034;-64
2022/08/30 03:36:28;;;;;;;1.33;0.90;;;;;;;19.71;100.00;100845.44;4988995;28;20030;-60
2022/08/30 03:38:53;;;;;;;2.15;1.08;;;;;;;19.54;100.00;100844.94;4988984;28;20032;-63
2022/08/30 03:41:19;;;;;;;1.40;0.90;;;;;;;19.39;100.00;100844.19;4989148;28;20084;-62
2022/08/30 03:43:47;;;;;;;6.28;1.83;;;;;;;19.35;100.00;100851.69;4988649;28;20050;-61
2022/08/30 03:46:13;;;;;;;1.98;1.10;;;;;;;19.45;100.00;100840.75;4989008;28;20030;-62
2022/08/30 03:48:39;;;;;;;3.67;1.33;;;;;;;19.54;100.00;100848.38;4971053;28;20520;-61
2022/08/30 03:51:05;;;;;;;4.13;0.93;;;;;;;19.61;100.00;100851.06;4988622;28;20038;-62
2022/08/30 03:53:31;;;;;;;1.52;0.80;;;;;;;19.67;100.00;100860.06;4988731;28;20022;-60
2022/08/30 03:55:57;;;;;;;1.98;0.90;;;;;;;19.68;100.00;100861.69;4988812;28;20109;-63
2022/08/30 03:58:23;;;;;;;3.60;1.27;;;;;;;19.69;100.00;100858.03;4988674;28;20375;-63
2022/08/30 04:00:48;;;;;;;4.78;0.70;;;;;;;19.71;100.00;100863.94;4988669;28;20058;-63
2022/08/30 04:03:14;;;;;;;3.70;1.02;;;;;;;19.72;100.00;100868.22;4988565;28;20028;-60
2022/08/30 04:05:39;;;;;;;5.20;1.10;;;;;;;19.73;100.00;100869.84;4988871;28;20435;-64
2022/08/30 04:08:05;;;;;;;2.85;1.13;;;;;;;19.72;100.00;100881.44;4988681;28;20037;-62
2022/08/30 04:10:31;;;;;;;1.70;0.90;;;;;;;19.74;100.00;100879.41;4988736;28;20034;-63
2022/08/30 04:12:56;;;;;;;4.53;1.20;;;;;;;19.71;100.00;100877.16;4988340;28;20057;-61
2022/08/30 04:15:22;;;;;;;6.80;1.48;;;;;;;19.66;100.00;100876.94;4988519;28;20061;-63
2022/08/30 04:17:48;;;;;;;3.20;1.40;;;;;;;19.64;100.00;100881.59;4991899;28;20508;-60
2022/08/30 04:20:14;;;;;;;5.70;1.33;;;;;;;19.68;100.00;100890.78;4992133;28;20030;-61
2022/08/30 04:22:41;;;;;;;3.47;1.30;;;;;;;19.70;100.00;100889.56;4992533;28;20480;-61
2022/08/30 04:25:07;;;;;;;2.28;1.00;;;;;;;19.68;100.00;100888.13;4974689;28;20062;-62
2022/08/30 04:27:33;;;;;;;2.15;1.02;;;;;;;19.63;100.00;100885.25;4992098;28;20129;-61
2022/08/30 04:29:59;;;;;;;2.67;0.90;;;;;;;19.59;100.00;100892.75;4992442;28;20113;-63
2022/08/30 04:32:24;;;;;;;5.32;1.60;;;;;;;19.57;100.00;100888.66;4992180;28;20421;-64
2022/08/30 04:34:55;;;;;;;3.83;1.30;;;;;;;19.54;100.00;100887.22;4992121;28;20126;-62
2022/08/30 04:37:20;;;;;;;3.55;1.40;;;;;;;19.52;100.00;100895.34;4992268;28;20081;-62
2022/08/30 04:39:47;;;;;;;6.45;1.10;;;;;;;19.53;100.00;100894.31;4992110;28;20397;-62
2022/08/30 04:42:14;;;;;;;3.47;2.03;;;;;;;19.59;100.00;100902.50;4973872;28;20038;-61
2022/08/30 04:44:40;;;;;;;2.70;1.10;;;;;;;19.54;100.00;100908.34;4974181;28;20149;-64
2022/08/30 04:47:07;;;;;;;2.40;1.25;;;;;;;19.47;100.00;100913.56;4991693;28;20109;-60
2022/08/30 04:49:32;;;;;;;4.15;1.05;;;;;;;19.47;100.00;100913.56;4974048;28;20466;-63
2022/08/30 04:51:58;;;;;;;2.10;0.93;;;;;;;19.52;100.00;100920.94;4992323;28;20062;-62
2022/08/30 04:54:23;;;;;;;1.45;1.00;;;;;;;19.54;100.00;100919.75;4991749;28;20038;-61
2022/08/30 04:56:49;;;;;;;3.75;0.93;;;;;;;19.61;100.00;100929.53;4991755;28;20033;-64
2022/08/30 04:59:14;;;;;;;4.10;1.10;;;;;;;19.62;100.00;100928.53;4991774;28;20026;-64
2022/08/30 05:01:40;;;;;;;2.58;1.10;;;;;;;19.62;100.00;100933.81;4991647;28;20031;-61
2022/08/30 05:04:06;;;;;;;4.35;1.50;;;;;;;19.62;100.00;100941.75;4991402;28;20809;-62
2022/08/30 05:06:31;;;;;;;2.10;0.93;;;;;;;19.66;100.00;100938.53;4973863;28;20178;-63
2022/08/30 05:08:59;;;;;;;6.07;1.10;;;;;;;19.71;100.00;100941.44;4991748;28;20027;-62
2022/08/30 05:11:24;;;;;;;4.97;0.88;;;;;;;19.80;100.00;100944.75;4973839;28;20116;-66
2022/08/30 05:13:50;;;;;;;5.55;0.75;;;;;;;19.86;100.00;100944.75;4991363;28;20081;-62
2022/08/30 05:16:18;;;;;;;1.17;0.82;;;;;;;19.91;100.00;100935.44;4991267;28;20533;-62
2022/08/30 05:18:45;;;;;;;1.20;0.88;;;;;;;19.99;100.00;100943.22;4973498;28;20592;-64
2022/08/30 05:21:15;;;;;;;1.92;0.98;;;;;;;20.05;100.00;100937.97;4991457;28;20038;-65
2022/08/30 05:23:41;;;;;;;2.30;1.20;;;;;;;20.15;100.00;100934.97;4991091;28;20042;-63
2022/08/30 05:26:17;;;;;;;3.70;1.00;;;;;;;20.21;99.46;100940.31;4973727;28;20076;-62
2022/08/30 05:28:43;;;;;;;1.80;0.93;;;;;;;20.25;100.00;100937.28;4990605;28;20026;-65
2022/08/30 05:31:16;;;;;;;3.00;0.77;;;;;;;20.26;100.00;100938.91;4991324;28;20038;-63
2022/08/30 05:33:42;;;;;;;4.18;1.05;;;;;;;20.28;100.00;100937.69;4991109;28;20026;-62
2022/08/30 05:36:09;;;;;;;5.30;1.25;;;;;;;20.29;100.00;100936.69;4991115;28;20394;-65
2022/08/30 05:38:35;;;;;;;4.68;1.42;;;;;;;20.31;100.00;100942.59;4990862;28;20030;-61
2022/08/30 05:41:00;;;;;;;1.52;1.10;;;;;;;20.30;100.00;100930.38;4990765;28;20027;-65
2022/08/30 05:43:26;;;;;;;3.30;0.75;;;;;;;20.31;100.00;100937.31;4990282;28;20054;-62
2022/08/30 05:46:04;;;;;;;3.20;0.98;;;;;;;20.40;99.47;100935.31;4990481;28;20030;-64
2022/08/30 05:48:29;;;;;;;2.55;0.90;;;;;;;20.48;99.25;100938.59;4973221;28;20042;-64
2022/08/30 05:51:07;;;;;;;4.30;0.90;;;;;;;20.57;97.33;100949.84;4990723;28;20026;-65
2022/08/30 05:53:34;;;;;;;4.72;0.90;;;;;;;20.67;97.87;100939.69;4990629;28;20038;-61
2022/08/30 05:56:05;;;;;;;2.42;0.90;;;;;;;20.73;97.88;100938.09;4990423;28;20031;-62
2022/08/30 05:58:32;;;;;;;4.15;0.80;;;;;;;20.80;97.49;100946.84;4990717;28;20038;-61
2022/08/30 06:00:58;;;;;;;3.33;0.75;;;;;;;20.87;96.47;100945.84;4990679;28;20078;-64
2022/08/30 06:03:24;;;;;;;2.72;0.88;;;;;;;20.92;96.93;100944.44;4990359;28;20365;-62
2022/08/30 06:05:50;;;;;;;4.47;1.02;;;;;;;20.97;96.76;100942.00;4972759;28;20022;-62
2022/08/30 06:08:15;;;;;;;5.20;1.10;;;;;;;20.99;96.64;100947.91;4990490;28;20038;-66
2022/08/30 06:10:41;;;;;;;4.22;0.90;;;;;;;20.99;96.32;100942.63;4990179;28;20159;-65
2022/08/30 06:13:06;;;;;;;1.65;0.70;;;;;;;21.02;96.58;100944.88;4990556;28;20494;-65
2022/08/30 06:15:31;;;;;;;7.43;1.20;;;;;;;21.05;96.04;100952.41;4990198;28;20054;-64
2022/08/30 06:17:57;;;;;;;5.78;1.13;;;;;;;21.10;96.11;100944.69;4990300;28;20113;-67
2022/08/30 06:20:23;;;;;;;1.42;1.05;;;;;;;21.14;95.89;100951.22;4990055;28;20544;-64
2022/08/30 06:22:49;;;;;;;4.95;1.10;;;;;;;21.20;96.06;100953.06;4972262;28;20030;-63
2022/08/30 06:25:15;;;;;;;3.33;1.40;;;;;;;21.24;96.21;100954.31;4989769;28;20026;-63
2022/08/30 06:27:41;;;;;;;5.50;1.73;;;;;;;21.28;96.54;100952.88;4972330;28;20034;-64
2022/08/30 06:30:09;;;;;;;2.95;1.10;;;;;;;21.38;95.82;100950.63;4990244;28;20023;-63
2022/08/30 06:32:36;;;;;;;4.30;0.90;;;;;;;21.52;95.37;100946.97;4971161;28;20037;-65
2022/08/30 06:35:02;;;;;;;1.73;1.00;;;;;;;21.62;95.18;100945.75;4986909;28;20037;-66
2022/08/30 06:37:28;;;;;;;6.88;1.10;;;;;;;21.69;95.37;100949.22;4988319;28;20042;-65
2022/08/30 06:39:54;;;;;;;5.68;1.50;;;;;;;21.80;94.44;100948.56;4970257;28;20029;-66
2022/08/30 06:42:20;;;;;;;5.72;1.40;;;;;;;21.91;93.33;100934.69;4955146;28;20516;-64
2022/08/30 06:44:46;;;;;;;3.13;1.02;;;;;;;21.91;92.94;100937.34;4968368;28;20062;-64
2022/08/30 06:47:11;;;;;;;3.15;1.20;;;;;;;21.98;93.65;100943.44;4988971;28;20074;-62
2022/08/30 06:49:37;;;;;;;2.22;1.15;;;;;;;22.05;93.80;100940.81;4986938;28;20093;-63
2022/08/30 06:52:03;;;;;;;2.03;0.80;;;;;;;22.11;92.87;100946.09;4989470;28;20485;-63
2022/08/30 06:54:29;;;;;;;4.60;0.90;;;;;;;22.23;92.41;100943.59;4989462;28;20053;-63
2022/08/30 06:56:54;;;;;;;5.70;1.38;;;;;;;22.32;91.32;100937.03;4989486;28;20466;-64
2022/08/30 06:59:20;;;;;;;9.02;1.92;;;;;;;22.36;92.20;100945.38;4988947;28;20121;-64
2022/08/30 07:01:45;;;;;;;5.00;1.45;;;;;;;22.42;92.54;100944.56;4985211;28;20030;-64
2022/08/30 07:04:11;;;;;;;3.00;0.93;;;;;;;22.52;91.72;100939.63;4970105;28;20130;-64
2022/08/30 07:06:36;;;;;;;1.83;1.10;;;;;;;22.56;91.28;100934.69;4988619;28;20030;-65
2022/08/30 07:09:02;;;;;;;3.75;0.80;;;;;;;22.65;90.43;100930.78;4988920;28;20061;-65
2022/08/30 07:11:33;;;;;;;4.70;1.50;;;;;;;22.73;89.61;100931.31;4989350;28;20441;-62
2022/08/30 07:13:59;;;;;;;2.30;0.93;;;;;;;22.81;89.66;100935.59;4969557;28;20034;-63
2022/08/30 07:16:25;;;;;;;5.00;0.90;;;;;;;22.93;89.45;100927.75;4988636;28;20425;-64
2022/08/30 07:18:53;;;;;;;5.03;0.80;;;;;;;23.03;89.03;100930.78;4987319;28;20431;-66
2022/08/30 07:21:35;;;;;;;1.95;0.68;;;;;;;23.05;86.91;100918.09;4969586;28;20445;-63
2022/08/30 07:24:02;;;;;;;2.63;0.70;;;;;;;23.17;88.43;100914.50;4978873;28;20034;-63
2022/08/30 07:26:45;;;;;;;3.78;1.02;;;;;;;23.35;85.21;100899.63;4970812;28;20030;-66
2022/08/30 07:29:11;;;;;;;1.85;0.75;;;;;;;23.42;87.74;100901.22;4989122;28;20044;-64
2022/08/30 07:31:36;;;;;;;5.28;1.08;;;;;;;23.52;87.02;100899.91;4995008;28;20037;-63
2022/08/30 07:34:03;;;;;;;2.10;0.90;;;;;;;23.68;86.42;100894.03;4988512;28;20033;-64
2022/08/30 07:36:29;;;;;;;1.67;0.70;;;;;;;23.82;84.44;100890.19;4988759;28;20026;-65
2022/08/30 07:38:55;;;;;;;3.28;0.80;;;;;;;23.93;83.99;100894.78;4988701;28;20045;-64
2022/08/30 07:41:25;;;;;;;2.15;0.70;;;;;;;24.08;83.96;100892.59;4980273;28;20022;-63
2022/08/30 07:43:51;;;;;;;3.10;0.90;;;;;;;24.12;82.38;100882.28;4983875;28;20048;-64
2022/08/30 07:46:18;;;;;;;3.67;0.90;;;;;;;24.27;81.96;100884.59;4987964;28;20042;-66
2022/08/30 07:48:44;;;;;;;2.78;0.50;;;;;;;24.40;81.85;100882.56;4988870;28;20026;-66
2022/08/30 07:51:11;;;;;;;4.03;1.05;;;;;;;24.53;82.37;100870.94;4989320;28;20511;-66
2022/08/30 07:53:38;;;;;;;2.45;0.70;;;;;;;24.69;81.19;100875.59;4988803;28;20026;-62
2022/08/30 07:56:03;;;;;;;1.23;0.60;;;;;;;24.81;80.38;100873.78;4988585;28;20454;-68
2022/08/30 07:58:29;;;;;;;0.90;0.52;;;;;;;24.91;79.29;100872.41;4988599;28;20057;-65
2022/08/30 08:00:58;;;;;;;1.13;0.55;;;;;;;24.98;77.36;100867.81;4988463;28;20369;-60
2022/08/30 08:03:25;;;;;;;1.13;0.60;;;;;;;25.12;76.70;100866.53;4970913;28;20085;-63
2022/08/30 08:05:52;;;;;;;1.92;0.57;;;;;;;25.32;76.55;100877.69;4988852;28;20041;-62
2022/08/30 08:08:18;;;;;;;8.35;1.00;;;;;;;25.30;76.56;100876.31;4971075;28;20041;-63
2022/08/30 08:10:43;;;;;;;2.83;0.77;;;;;;;25.09;77.66;100880.34;4988712;28;20456;-62
2022/08/30 08:13:09;;;;;;;1.42;0.40;;;;;;;25.01;77.60;100883.38;4988706;28;20031;-62
2022/08/30 08:15:35;;;;;;;1.65;0.50;;;;;;;25.13;77.62;100886.84;4988672;28;20022;-64
2022/08/30 08:18:00;;;;;;;3.95;0.40;;;;;;;25.34;78.00;100880.13;4988713;28;20572;-66
2022/08/30 08:20:26;;;;;;;3.97;0.82;;;;;;;25.46;77.75;100876.44;4988809;28;20030;-62
2022/08/30 08:22:52;;;;;;;3.00;0.70;;;;;;;25.50;77.09;100871.44;4988468;28;20457;-60
2022/08/30 08:25:18;;;;;;;1.10;0.60;;;;;;;25.66;76.18;100872.59;4988565;28;20062;-64
2022/08/30 08:27:49;;;;;;;0.90;0.73;;;;;;;25.68;73.96;100870.50;4988478;28;20054;-62
2022/08/30 08:30:19;;;;;;;2.13;0.52;;;;;;;25.66;76.02;100869.94;4988128;28;20512;-64
2022/08/30 08:32:46;;;;;;;1.67;0.43;;;;;;;25.71;74.49;100870.03;4988616;28;20057;-62
2022/08/30 08:35:12;;;;;;;2.42;0.43;;;;;;;25.89;72.72;100864.56;4988467;28;20034;-62
2022/08/30 08:37:39;;;;;;;2.42;0.70;;;;;;;26.03;73.64;100855.22;4970914;28;20117;-63
2022/08/30 08:40:07;;;;;;;2.47;0.68;;;;;;;26.03;72.48;100862.41;4988459;28;20437;-63
2022/08/30 08:42:54;;;;;;;1.35;0.60;;;;;;;26.05;70.90;100863.00;4987620;28;20046;-63
2022/08/30 08:45:29;;;;;;;1.38;0.50;;;;;;;26.08;72.10;100862.53;4988129;28;20042;-67
2022/08/30 08:47:58;;;;;;;1.88;0.50;;;;;;;26.13;73.65;100866.09;4988575;28;20037;-66
2022/08/30 08:50:24;;;;;;;1.20;0.60;;;;;;;26.05;72.45;100863.00;4970611;28;20190;-61
2022/08/30 08:56:05;;;;;;;0.70;0.50;;;;;;;26.06;72.31;100865.44;4927441;29;20054;-61
2022/08/30 08:58:45;;;;;;;0.70;0.40;;;;;;;26.12;71.18;100866.34;4927473;29;20070;-65
2022/08/30 09:01:14;;;;;;;2.88;0.40;;;;;;;25.99;73.03;100870.13;4927589;29;20066;-63
2022/08/30 09:03:40;;;;;;;4.22;0.82;;;;;;;25.84;73.81;100872.47;4930464;29;20043;-63
2022/08/30 09:06:21;;;;;;;3.05;1.02;;;;;;;25.85;75.63;100874.09;4931182;29;20039;-60
2022/08/30 09:08:47;;;;;;;1.35;0.50;;;;;;;25.84;76.87;100864.47;4931068;29;20039;-60
2022/08/30 09:11:20;;;;;;;2.15;0.45;;;;;;;25.82;75.98;100865.72;4930854;29;20036;-61
2022/08/30 09:13:46;;;;;;;2.78;0.70;;;;;;;25.80;76.74;100865.97;4930607;29;20063;-63
2022/08/30 09:16:43;;;;;;;1.10;0.45;;;;;;;25.78;73.58;100862.72;4930677;29;20122;-64
2022/08/30 09:19:09;;;;;;;1.10;0.60;;;;;;;25.87;74.34;100855.16;4930668;29;20031;-66
2022/08/30 09:21:35;;;;;;;1.27;0.60;;;;;;;25.95;73.60;100858.28;4930481;29;20035;-67
2022/08/30 09:24:03;;;;;;;1.58;0.80;;;;;;;26.13;72.94;100860.75;4930486;29;20034;-66
2022/08/30 09:26:33;;;;;;;2.50;0.65;;;;;;;26.12;72.16;100859.13;4953096;28;20034;-64
2022/08/30 09:28:59;;;;;;;2.30;0.50;;;;;;;26.08;72.50;100860.66;4991231;28;20541;-62
2022/08/30 09:31:31;;;;;;;1.15;0.65;;;;;;;26.15;71.15;100854.38;4973339;28;20030;-65
2022/08/30 09:34:14;;;;;;;1.30;0.70;;;;;;;26.10;69.88;100853.22;4990785;28;20379;-62
2022/08/30 09:36:51;;;;;;;2.35;0.60;;;;;;;26.03;71.60;100851.75;4990923;28;20113;-63
2022/08/30 09:39:24;;;;;;;1.13;0.45;;;;;;;26.12;72.95;100853.81;4991019;28;20037;-67
2022/08/30 09:41:51;;;;;;;2.85;0.60;;;;;;;26.28;71.71;100848.75;4990636;28;20526;-65
2022/08/30 09:44:23;;;;;;;1.10;0.45;;;;;;;26.24;71.20;100845.75;4990982;28;20078;-64
2022/08/30 09:47:00;;;;;;;1.38;0.50;;;;;;;26.03;69.98;100843.72;4973174;28;20442;-65
2022/08/30 09:49:40;;;;;;;0.95;0.50;;;;;;;26.06;69.04;100843.25;4990640;28;20030;-65
2022/08/30 09:52:23;;;;;;;1.73;0.90;;;;;;;26.06;69.74;100837.91;4990635;28;20601;-67
2022/08/30 09:55:07;;;;;;;1.20;0.55;;;;;;;26.17;67.88;100833.59;4990637;28;20457;-64
2022/08/30 09:57:52;;;;;;;1.52;0.50;;;;;;;26.31;69.63;100830.44;4990419;28;20042;-64
2022/08/30 10:00:20;;;;;;;1.15;0.50;;;;;;;26.31;70.74;100829.63;4990455;28;20321;-66
2022/08/30 10:02:57;;;;;;;7.82;0.68;;;;;;;26.23;69.13;100832.63;4990473;28;20101;-64
2022/08/30 10:06:00;;;;;;;1.50;0.60;;;;;;;26.26;68.73;100822.28;4972672;28;20122;-62
2022/08/30 10:08:35;;;;;;;2.53;0.50;;;;;;;26.27;70.98;100826.59;4990292;28;20036;-63
2022/08/30 10:11:09;;;;;;;1.70;0.83;;;;;;;26.18;68.23;100819.19;4990397;28;20189;-62
2022/08/30 10:13:55;;;;;;;0.73;0.50;;;;;;;26.09;68.83;100822.22;4972773;28;20281;-65
2022/08/30 10:16:32;;;;;;;0.93;0.60;;;;;;;25.95;69.85;100818.25;4990426;28;20462;-67
2022/08/30 10:19:00;;;;;;;1.13;0.57;;;;;;;25.83;70.14;100822.81;4990451;28;20057;-63
2022/08/30 10:22:01;;;;;;;0.90;0.70;;;;;;;25.80;69.62;100823.28;4972757;28;20096;-65
2022/08/30 10:24:39;;;;;;;1.52;0.70;;;;;;;25.93;70.76;100816.84;4959095;28;20058;-64
2022/08/30 10:27:10;;;;;;;1.23;0.40;;;;;;;25.91;71.29;100827.78;4989996;28;20482;-65
2022/08/30 10:29:59;;;;;;;1.50;0.60;;;;;;;25.88;70.63;100825.56;4990144;28;20035;-65
2022/08/30 10:32:31;;;;;;;1.33;0.80;;;;;;;25.86;72.33;100819.66;4990011;28;20041;-62
2022/08/30 10:35:07;;;;;;;3.35;0.55;;;;;;;25.85;71.13;100815.38;4990177;28;20534;-63
2022/08/30 10:37:38;;;;;;;0.90;0.40;;;;;;;25.89;71.81;100816.53;4989820;28;20038;-65
2022/08/30 10:43:09;;;;;;;2.28;0.70;;;;;;;26.13;68.37;100810.03;4975981;28;20060;-63
2022/08/30 10:45:43;;;;;;;1.67;0.60;;;;;;;26.22;67.19;100806.97;4989671;28;20428;-60
2022/08/30 10:48:39;;;;;;;4.50;0.50;;;;;;;26.19;67.22;100810.13;4972001;28;20451;-60
2022/08/30 10:51:11;;;;;;;1.05;0.57;;;;;;;26.23;65.42;100806.75;4969826;28;20378;-64
2022/08/30 10:53:45;;;;;;;1.70;0.40;;;;;;;26.39;64.76;100794.50;4990016;28;20778;-65
2022/08/30 10:56:19;;;;;;;1.55;0.60;;;;;;;26.34;65.27;100791.75;4989938;28;20026;-65
2022/08/30 10:58:46;;;;;;;3.45;0.57;;;;;;;26.36;64.08;100800.31;4989566;28;20102;-65
2022/08/30 11:01:17;;;;;;;1.20;0.40;;;;;;;26.39;63.26;100800.66;4989387;28;20042;-62
2022/08/30 11:04:01;;;;;;;3.22;0.43;;;;;;;26.48;62.37;100797.56;4989351;28;20034;-65
2022/08/30 11:06:36;;;;;;;0.90;0.50;;;;;;;26.67;59.27;100798.97;4971568;28;20038;-66
2022/08/30 11:09:16;;;;;;;0.90;0.40;;;;;;;26.98;61.84;100784.22;4989692;28;20112;-62
2022/08/30 11:12:07;;;;;;;0.73;0.40;;;;;;;26.99;61.46;100783.19;4989150;28;20042;-63
2022/08/30 11:14:32;;;;;;;0.80;0.60;;;;;;;26.82;63.34;100788.53;4989792;28;20040;-67
2022/08/30 11:17:00;;;;;;;3.72;0.60;;;;;;;27.20;62.17;100778.94;4971253;28;20030;-64
2022/08/30 11:19:40;;;;;;;0.63;0.40;;;;;;;27.19;60.10;100777.31;4986682;28;20108;-63
2022/08/30 11:22:29;;;;;;;0.68;0.47;;;;;;;27.11;59.79;100794.59;4987164;28;20112;-65
2022/08/30 11:25:35;;;;;;;3.65;0.40;;;;;;;27.15;59.27;100786.88;4983593;28;20042;-65
2022/08/30 11:28:00;;;;;;;1.33;0.40;;;;;;;27.09;61.16;100783.34;4967309;28;20121;-63
2022/08/30 11:30:27;;;;;;;1.00;0.63;;;;;;;27.16;61.39;100780.50;4986811;28;20113;-62
2022/08/30 11:32:58;;;;;;;1.15;0.45;;;;;;;27.21;60.94;100783.22;4960677;28;20556;-61
2022/08/30 11:35:39;;;;;;;1.73;0.70;;;;;;;27.13;62.41;100778.31;4956312;28;20118;-63
2022/08/30 11:38:30;;;;;;;2.10;0.70;;;;;;;26.96;64.09;100773.78;4979877;28;20137;-64
2022/08/30 11:40:57;;;;;;;0.95;0.47;;;;;;;26.93;65.18;100774.28;4960155;28;20130;-65